Vailsburg, New Jersey
Current Conditions -  °F | °C
As of 1:51 PM on Thursday 23 Oct 2014 (Local Time) from KEWR Reporting Station
Light Rain Light Rain  
Wind Chill: 53°   Ceiling: 4000
Heat Index: 53°   Visibility: 10mi
Dew Point: 50°   Wind: 14mph
Humidity: 89%   Direction: 340°NNW
Pressure: 29.71"   Gusts: 23mph
Location:  40.742°N, 74.23°W
Report Text: KEWR 231751Z 34012G20KT 10SM -RA SCT016 BKN040 OVC065 12/10 A2971 RMK AO2 SLP060 SCT V BKN P0003 60033 T01170100 10122 20106 58005 $
Loading
Personal Weather Stations






























Interactive Weather Map
Tropical Storm Tracking
New forecast layout! Learn more

10-Day Weather Forecast

Advertisements
Track Severe Weather on mobile